sensor_id;sensor_type;location;lat;lon;timestamp;temperature;humidity
19610;DHT22;9952;47.122;-1.638;2024-03-29T00:01:41;9.40;99.90
19610;DHT22;9952;47.122;-1.638;2024-03-29T00:06:24;9.40;99.90
19610;DHT22;9952;47.122;-1.638;2024-03-29T00:11:04;9.50;99.90
19610;DHT22;9952;47.122;-1.638;2024-03-29T00:15:48;9.40;99.90
19610;DHT22;9952;47.122;-1.638;2024-03-29T00:20:29;9.40;99.90
19610;DHT22;9952;47.122;-1.638;2024-03-29T00:25:10;9.40;99.90
19610;DHT22;9952;47.122;-1.638;2024-03-29T00:29:51;9.40;99.90
19610;DHT22;9952;47.122;-1.638;2024-03-29T00:34:35;9.40;99.90
19610;DHT22;9952;47.122;-1.638;2024-03-29T00:39:15;9.40;99.90
19610;DHT22;9952;47.122;-1.638;2024-03-29T00:43:56;9.40;99.90
19610;DHT22;9952;47.122;-1.638;2024-03-29T00:48:37;9.30;99.90
19610;DHT22;9952;47.122;-1.638;2024-03-29T00:53:17;9.30;99.90
19610;DHT22;9952;47.122;-1.638;2024-03-29T00:57:58;9.20;99.90
19610;DHT22;9952;47.122;-1.638;2024-03-29T01:02:39;9.10;99.90
19610;DHT22;9952;47.122;-1.638;2024-03-29T01:07:19;9.10;99.90
19610;DHT22;9952;47.122;-1.638;2024-03-29T01:12:00;9.00;99.90
19610;DHT22;9952;47.122;-1.638;2024-03-29T01:16:41;9.00;99.90
19610;DHT22;9952;47.122;-1.638;2024-03-29T01:21:21;8.90;99.90
19610;DHT22;9952;47.122;-1.638;2024-03-29T01:26:02;8.90;99.90
19610;DHT22;9952;47.122;-1.638;2024-03-29T01:30:43;9.00;99.90
19610;DHT22;9952;47.122;-1.638;2024-03-29T01:35:23;9.10;99.90
19610;DHT22;9952;47.122;-1.638;2024-03-29T01:40:04;9.10;99.90
19610;DHT22;9952;47.122;-1.638;2024-03-29T01:44:45;9.20;99.90
19610;DHT22;9952;47.122;-1.638;2024-03-29T01:49:26;9.30;99.90
19610;DHT22;9952;47.122;-1.638;2024-03-29T01:54:09;9.30;99.90
19610;DHT22;9952;47.122;-1.638;2024-03-29T01:58:51;9.40;99.90
19610;DHT22;9952;47.122;-1.638;2024-03-29T02:03:34;9.40;99.90
19610;DHT22;9952;47.122;-1.638;2024-03-29T02:08:15;9.50;99.90
19610;DHT22;9952;47.122;-1.638;2024-03-29T02:12:56;9.40;99.90
19610;DHT22;9952;47.122;-1.638;2024-03-29T02:17:36;9.30;99.90
19610;DHT22;9952;47.122;-1.638;2024-03-29T02:22:17;9.30;99.90
19610;DHT22;9952;47.122;-1.638;2024-03-29T02:26:59;9.20;99.90
19610;DHT22;9952;47.122;-1.638;2024-03-29T02:31:40;9.10;99.90
19610;DHT22;9952;47.122;-1.638;2024-03-29T02:36:21;9.10;99.90
19610;DHT22;9952;47.122;-1.638;2024-03-29T02:41:01;9.00;99.90
19610;DHT22;9952;47.122;-1.638;2024-03-29T02:45:43;9.00;99.90
19610;DHT22;9952;47.122;-1.638;2024-03-29T02:50:23;9.00;99.90
19610;DHT22;9952;47.122;-1.638;2024-03-29T02:55:04;9.10;99.90
19610;DHT22;9952;47.122;-1.638;2024-03-29T02:59:45;9.00;99.90
19610;DHT22;9952;47.122;-1.638;2024-03-29T03:04:26;9.00;99.90
19610;DHT22;9952;47.122;-1.638;2024-03-29T03:09:07;9.00;99.90
19610;DHT22;9952;47.122;-1.638;2024-03-29T03:14:06;9.00;99.90
19610;DHT22;9952;47.122;-1.638;2024-03-29T03:18:46;9.00;99.90
19610;DHT22;9952;47.122;-1.638;2024-03-29T03:23:27;9.00;99.90
19610;DHT22;9952;47.122;-1.638;2024-03-29T03:28:08;9.00;99.90
19610;DHT22;9952;47.122;-1.638;2024-03-29T03:32:50;9.00;99.90
19610;DHT22;9952;47.122;-1.638;2024-03-29T03:37:30;9.10;99.90
19610;DHT22;9952;47.122;-1.638;2024-03-29T03:42:11;9.20;99.90
19610;DHT22;9952;47.122;-1.638;2024-03-29T03:46:52;9.20;99.90
19610;DHT22;9952;47.122;-1.638;2024-03-29T03:51:32;9.30;99.90
19610;DHT22;9952;47.122;-1.638;2024-03-29T03:56:13;9.30;99.90
19610;DHT22;9952;47.122;-1.638;2024-03-29T04:00:54;9.30;99.90
19610;DHT22;9952;47.122;-1.638;2024-03-29T04:05:37;9.40;99.90
19610;DHT22;9952;47.122;-1.638;2024-03-29T04:10:17;9.40;99.90
19610;DHT22;9952;47.122;-1.638;2024-03-29T04:14:58;9.40;99.90
19610;DHT22;9952;47.122;-1.638;2024-03-29T04:19:39;9.30;99.90
19610;DHT22;9952;47.122;-1.638;2024-03-29T04:24:19;9.30;99.90
19610;DHT22;9952;47.122;-1.638;2024-03-29T04:29:00;9.30;99.90
19610;DHT22;9952;47.122;-1.638;2024-03-29T04:33:41;9.30;99.90
19610;DHT22;9952;47.122;-1.638;2024-03-29T04:38:21;9.30;99.90
19610;DHT22;9952;47.122;-1.638;2024-03-29T04:43:02;9.20;99.90
19610;DHT22;9952;47.122;-1.638;2024-03-29T04:47:43;9.20;99.90
19610;DHT22;9952;47.122;-1.638;2024-03-29T04:52:23;9.20;99.90
19610;DHT22;9952;47.122;-1.638;2024-03-29T04:57:06;9.10;99.90
19610;DHT22;9952;47.122;-1.638;2024-03-29T05:01:50;9.10;99.90
19610;DHT22;9952;47.122;-1.638;2024-03-29T05:06:31;9.10;99.90
19610;DHT22;9952;47.122;-1.638;2024-03-29T05:11:12;9.10;99.90
19610;DHT22;9952;47.122;-1.638;2024-03-29T05:15:55;9.20;99.90
19610;DHT22;9952;47.122;-1.638;2024-03-29T05:20:35;9.20;99.90
19610;DHT22;9952;47.122;-1.638;2024-03-29T05:25:16;9.20;99.90
19610;DHT22;9952;47.122;-1.638;2024-03-29T05:29:57;9.20;99.90
19610;DHT22;9952;47.122;-1.638;2024-03-29T05:34:38;9.20;99.90
19610;DHT22;9952;47.122;-1.638;2024-03-29T05:39:19;9.20;99.90
19610;DHT22;9952;47.122;-1.638;2024-03-29T05:44:00;9.20;99.90
19610;DHT22;9952;47.122;-1.638;2024-03-29T05:48:40;9.20;99.90
19610;DHT22;9952;47.122;-1.638;2024-03-29T05:53:21;9.20;99.90
19610;DHT22;9952;47.122;-1.638;2024-03-29T05:58:02;9.20;99.90
19610;DHT22;9952;47.122;-1.638;2024-03-29T06:02:43;9.30;99.90
19610;DHT22;9952;47.122;-1.638;2024-03-29T06:07:28;9.30;99.90
19610;DHT22;9952;47.122;-1.638;2024-03-29T06:12:09;9.30;99.90
19610;DHT22;9952;47.122;-1.638;2024-03-29T06:16:52;9.40;99.90
19610;DHT22;9952;47.122;-1.638;2024-03-29T06:21:51;9.40;99.90
19610;DHT22;9952;47.122;-1.638;2024-03-29T06:26:32;9.50;99.90
19610;DHT22;9952;47.122;-1.638;2024-03-29T06:31:12;9.50;99.90
19610;DHT22;9952;47.122;-1.638;2024-03-29T06:35:54;9.50;99.90
19610;DHT22;9952;47.122;-1.638;2024-03-29T06:40:35;9.50;99.90
19610;DHT22;9952;47.122;-1.638;2024-03-29T06:45:16;9.60;99.90
19610;DHT22;9952;47.122;-1.638;2024-03-29T06:49:56;9.70;99.90
19610;DHT22;9952;47.122;-1.638;2024-03-29T06:54:37;9.70;99.90
19610;DHT22;9952;47.122;-1.638;2024-03-29T06:59:18;9.80;99.90
19610;DHT22;9952;47.122;-1.638;2024-03-29T07:03:59;9.90;99.90
19610;DHT22;9952;47.122;-1.638;2024-03-29T07:08:40;10.00;99.90
19610;DHT22;9952;47.122;-1.638;2024-03-29T07:13:20;10.10;99.90
19610;DHT22;9952;47.122;-1.638;2024-03-29T07:18:01;10.20;99.90
19610;DHT22;9952;47.122;-1.638;2024-03-29T07:22:45;10.30;99.90
19610;DHT22;9952;47.122;-1.638;2024-03-29T07:27:26;10.40;99.90
19610;DHT22;9952;47.122;-1.638;2024-03-29T07:32:08;10.50;99.90
19610;DHT22;9952;47.122;-1.638;2024-03-29T07:36:49;10.50;99.90
19610;DHT22;9952;47.122;-1.638;2024-03-29T07:41:30;10.60;99.90
19610;DHT22;9952;47.122;-1.638;2024-03-29T07:46:11;10.70;99.90
19610;DHT22;9952;47.122;-1.638;2024-03-29T07:50:52;10.80;99.90
19610;DHT22;9952;47.122;-1.638;2024-03-29T07:55:34;10.90;99.90
19610;DHT22;9952;47.122;-1.638;2024-03-29T08:00:14;11.00;99.90
19610;DHT22;9952;47.122;-1.638;2024-03-29T08:04:55;11.20;99.90
19610;DHT22;9952;47.122;-1.638;2024-03-29T08:09:36;11.30;99.90
19610;DHT22;9952;47.122;-1.638;2024-03-29T08:14:17;11.60;99.90
19610;DHT22;9952;47.122;-1.638;2024-03-29T08:18:57;11.80;99.90
19610;DHT22;9952;47.122;-1.638;2024-03-29T08:23:40;12.00;99.90
19610;DHT22;9952;47.122;-1.638;2024-03-29T08:28:22;12.00;99.90
19610;DHT22;9952;47.122;-1.638;2024-03-29T08:33:03;12.60;99.90
19610;DHT22;9952;47.122;-1.638;2024-03-29T08:37:44;13.50;99.90
19610;DHT22;9952;47.122;-1.638;2024-03-29T08:42:25;14.50;99.90
19610;DHT22;9952;47.122;-1.638;2024-03-29T08:47:05;15.20;99.90
19610;DHT22;9952;47.122;-1.638;2024-03-29T08:51:48;15.60;99.90
19610;DHT22;9952;47.122;-1.638;2024-03-29T08:56:28;15.90;99.90
19610;DHT22;9952;47.122;-1.638;2024-03-29T09:01:09;16.10;99.90
19610;DHT22;9952;47.122;-1.638;2024-03-29T09:05:52;16.40;99.90
19610;DHT22;9952;47.122;-1.638;2024-03-29T09:10:33;16.60;99.90
19610;DHT22;9952;47.122;-1.638;2024-03-29T09:15:14;16.40;99.90
19610;DHT22;9952;47.122;-1.638;2024-03-29T09:19:56;16.20;99.90
19610;DHT22;9952;47.122;-1.638;2024-03-29T09:24:37;16.30;99.90
19610;DHT22;9952;47.122;-1.638;2024-03-29T09:29:19;16.70;99.90
19610;DHT22;9952;47.122;-1.638;2024-03-29T09:34:01;16.80;99.90
19610;DHT22;9952;47.122;-1.638;2024-03-29T09:38:41;16.30;99.90
19610;DHT22;9952;47.122;-1.638;2024-03-29T09:43:23;15.80;99.90
19610;DHT22;9952;47.122;-1.638;2024-03-29T09:48:07;15.70;99.90
19610;DHT22;9952;47.122;-1.638;2024-03-29T09:52:49;15.60;99.90
19610;DHT22;9952;47.122;-1.638;2024-03-29T09:57:31;15.30;99.90
19610;DHT22;9952;47.122;-1.638;2024-03-29T10:02:16;15.40;99.90
19610;DHT22;9952;47.122;-1.638;2024-03-29T10:06:58;15.40;99.90
19610;DHT22;9952;47.122;-1.638;2024-03-29T10:11:38;15.30;99.90
19610;DHT22;9952;47.122;-1.638;2024-03-29T10:16:19;15.20;99.90
19610;DHT22;9952;47.122;-1.638;2024-03-29T10:21:06;15.20;99.90
19610;DHT22;9952;47.122;-1.638;2024-03-29T10:25:47;15.30;99.90
19610;DHT22;9952;47.122;-1.638;2024-03-29T10:30:28;15.20;99.90
19610;DHT22;9952;47.122;-1.638;2024-03-29T10:35:09;15.40;99.90
19610;DHT22;9952;47.122;-1.638;2024-03-29T10:39:50;15.50;99.90
19610;DHT22;9952;47.122;-1.638;2024-03-29T10:44:32;15.50;99.90
19610;DHT22;9952;47.122;-1.638;2024-03-29T10:49:15;15.80;99.90
19610;DHT22;9952;47.122;-1.638;2024-03-29T10:53:57;15.80;99.90
19610;DHT22;9952;47.122;-1.638;2024-03-29T10:58:40;16.10;99.90
19610;DHT22;9952;47.122;-1.638;2024-03-29T11:03:41;15.90;99.90
19610;DHT22;9952;47.122;-1.638;2024-03-29T11:08:27;15.50;99.90
19610;DHT22;9952;47.122;-1.638;2024-03-29T11:13:33;15.50;99.90
19610;DHT22;9952;47.122;-1.638;2024-03-29T11:18:15;15.90;99.90
19610;DHT22;9952;47.122;-1.638;2024-03-29T11:23:06;15.90;99.90
19610;DHT22;9952;47.122;-1.638;2024-03-29T11:27:49;16.10;99.90
19610;DHT22;9952;47.122;-1.638;2024-03-29T11:32:37;16.50;99.90
19610;DHT22;9952;47.122;-1.638;2024-03-29T11:37:18;16.90;99.90
19610;DHT22;9952;47.122;-1.638;2024-03-29T11:42:01;17.30;99.90
19610;DHT22;9952;47.122;-1.638;2024-03-29T11:46:46;17.40;99.90
19610;DHT22;9952;47.122;-1.638;2024-03-29T11:51:27;17.60;99.90
19610;DHT22;9952;47.122;-1.638;2024-03-29T11:56:08;17.40;99.90
19610;DHT22;9952;47.122;-1.638;2024-03-29T12:00:50;17.50;99.90
19610;DHT22;9952;47.122;-1.638;2024-03-29T12:05:31;17.50;99.90
19610;DHT22;9952;47.122;-1.638;2024-03-29T12:10:12;17.50;99.90
19610;DHT22;9952;47.122;-1.638;2024-03-29T12:14:52;17.40;99.90
19610;DHT22;9952;47.122;-1.638;2024-03-29T12:19:33;17.40;99.90
19610;DHT22;9952;47.122;-1.638;2024-03-29T12:24:17;17.50;99.90
19610;DHT22;9952;47.122;-1.638;2024-03-29T12:28:58;17.30;99.90
19610;DHT22;9952;47.122;-1.638;2024-03-29T12:33:40;17.00;99.90
19610;DHT22;9952;47.122;-1.638;2024-03-29T12:38:32;17.20;99.90
19610;DHT22;9952;47.122;-1.638;2024-03-29T12:43:14;17.20;99.90
19610;DHT22;9952;47.122;-1.638;2024-03-29T12:47:57;17.30;99.90
19610;DHT22;9952;47.122;-1.638;2024-03-29T12:52:42;17.50;99.90
19610;DHT22;9952;47.122;-1.638;2024-03-29T12:57:22;17.60;99.90
19610;DHT22;9952;47.122;-1.638;2024-03-29T13:02:03;17.70;99.90
19610;DHT22;9952;47.122;-1.638;2024-03-29T13:06:44;17.60;99.90
19610;DHT22;9952;47.122;-1.638;2024-03-29T13:11:25;17.20;99.90
19610;DHT22;9952;47.122;-1.638;2024-03-29T13:16:06;17.00;99.90
19610;DHT22;9952;47.122;-1.638;2024-03-29T13:20:46;16.80;99.90
19610;DHT22;9952;47.122;-1.638;2024-03-29T13:25:27;16.70;99.90
19610;DHT22;9952;47.122;-1.638;2024-03-29T13:30:10;16.60;99.90
19610;DHT22;9952;47.122;-1.638;2024-03-29T13:34:51;16.40;99.90
19610;DHT22;9952;47.122;-1.638;2024-03-29T13:39:32;16.30;99.90
19610;DHT22;9952;47.122;-1.638;2024-03-29T13:44:13;16.20;99.90
19610;DHT22;9952;47.122;-1.638;2024-03-29T13:48:57;16.00;99.90
19610;DHT22;9952;47.122;-1.638;2024-03-29T13:53:39;16.00;99.90
19610;DHT22;9952;47.122;-1.638;2024-03-29T13:58:20;16.10;99.90
19610;DHT22;9952;47.122;-1.638;2024-03-29T14:03:00;16.00;99.90
19610;DHT22;9952;47.122;-1.638;2024-03-29T14:07:41;15.90;99.90
19610;DHT22;9952;47.122;-1.638;2024-03-29T14:12:22;15.80;99.90
19610;DHT22;9952;47.122;-1.638;2024-03-29T14:17:04;15.60;99.90
19610;DHT22;9952;47.122;-1.638;2024-03-29T14:21:46;15.50;99.90
19610;DHT22;9952;47.122;-1.638;2024-03-29T14:26:27;15.30;99.90
19610;DHT22;9952;47.122;-1.638;2024-03-29T14:31:08;15.20;99.90
19610;DHT22;9952;47.122;-1.638;2024-03-29T14:35:48;15.00;99.90
19610;DHT22;9952;47.122;-1.638;2024-03-29T14:40:30;15.00;99.90
19610;DHT22;9952;47.122;-1.638;2024-03-29T14:45:11;14.90;99.90
19610;DHT22;9952;47.122;-1.638;2024-03-29T14:49:52;14.90;99.90
19610;DHT22;9952;47.122;-1.638;2024-03-29T14:54:33;15.10;99.90
19610;DHT22;9952;47.122;-1.638;2024-03-29T14:59:14;15.30;99.90
19610;DHT22;9952;47.122;-1.638;2024-03-29T15:03:54;15.30;99.90
19610;DHT22;9952;47.122;-1.638;2024-03-29T15:08:35;15.30;99.90
19610;DHT22;9952;47.122;-1.638;2024-03-29T15:13:16;15.20;99.90
19610;DHT22;9952;47.122;-1.638;2024-03-29T15:17:56;15.20;99.90
19610;DHT22;9952;47.122;-1.638;2024-03-29T15:22:41;15.00;99.90
19610;DHT22;9952;47.122;-1.638;2024-03-29T15:27:24;14.90;99.90
19610;DHT22;9952;47.122;-1.638;2024-03-29T15:32:34;14.80;99.90
19610;DHT22;9952;47.122;-1.638;2024-03-29T15:37:16;14.60;99.90
19610;DHT22;9952;47.122;-1.638;2024-03-29T15:41:57;14.60;99.90
19610;DHT22;9952;47.122;-1.638;2024-03-29T15:46:38;14.60;99.90
19610;DHT22;9952;47.122;-1.638;2024-03-29T15:51:18;14.40;99.90
19610;DHT22;9952;47.122;-1.638;2024-03-29T15:55:59;14.60;99.90
19610;DHT22;9952;47.122;-1.638;2024-03-29T16:00:40;14.60;99.90
19610;DHT22;9952;47.122;-1.638;2024-03-29T16:05:24;14.80;99.90
19610;DHT22;9952;47.122;-1.638;2024-03-29T16:10:05;14.90;99.90
19610;DHT22;9952;47.122;-1.638;2024-03-29T16:14:46;14.90;99.90
19610;DHT22;9952;47.122;-1.638;2024-03-29T16:19:26;14.90;99.90
19610;DHT22;9952;47.122;-1.638;2024-03-29T16:24:07;14.90;99.90
19610;DHT22;9952;47.122;-1.638;2024-03-29T16:28:48;14.80;99.90
19610;DHT22;9952;47.122;-1.638;2024-03-29T16:33:32;14.70;99.90
19610;DHT22;9952;47.122;-1.638;2024-03-29T16:38:14;14.50;99.90
19610;DHT22;9952;47.122;-1.638;2024-03-29T16:42:58;14.40;99.90
19610;DHT22;9952;47.122;-1.638;2024-03-29T16:47:38;14.40;99.90
19610;DHT22;9952;47.122;-1.638;2024-03-29T16:52:19;14.20;99.90
19610;DHT22;9952;47.122;-1.638;2024-03-29T16:57:03;14.00;99.90
19610;DHT22;9952;47.122;-1.638;2024-03-29T17:01:44;14.00;99.90
19610;DHT22;9952;47.122;-1.638;2024-03-29T17:06:25;14.10;99.90
19610;DHT22;9952;47.122;-1.638;2024-03-29T17:11:06;14.10;99.90
19610;DHT22;9952;47.122;-1.638;2024-03-29T17:15:49;14.10;99.90
19610;DHT22;9952;47.122;-1.638;2024-03-29T17:20:30;14.00;99.90
19610;DHT22;9952;47.122;-1.638;2024-03-29T17:25:11;14.00;99.90
19610;DHT22;9952;47.122;-1.638;2024-03-29T17:29:52;14.00;99.90
19610;DHT22;9952;47.122;-1.638;2024-03-29T17:34:33;13.90;99.90
19610;DHT22;9952;47.122;-1.638;2024-03-29T17:39:14;13.80;99.90
19610;DHT22;9952;47.122;-1.638;2024-03-29T17:43:55;13.70;99.90
19610;DHT22;9952;47.122;-1.638;2024-03-29T17:48:36;13.70;99.90
19610;DHT22;9952;47.122;-1.638;2024-03-29T17:53:17;13.70;99.90
19610;DHT22;9952;47.122;-1.638;2024-03-29T17:57:57;13.50;99.90
19610;DHT22;9952;47.122;-1.638;2024-03-29T18:02:38;13.50;99.90
19610;DHT22;9952;47.122;-1.638;2024-03-29T18:07:19;13.40;99.90
19610;DHT22;9952;47.122;-1.638;2024-03-29T18:11:59;13.40;99.90
19610;DHT22;9952;47.122;-1.638;2024-03-29T18:16:40;13.30;99.90
19610;DHT22;9952;47.122;-1.638;2024-03-29T18:21:21;13.20;99.90
19610;DHT22;9952;47.122;-1.638;2024-03-29T18:26:03;13.10;99.90
19610;DHT22;9952;47.122;-1.638;2024-03-29T18:30:47;13.00;99.90
19610;DHT22;9952;47.122;-1.638;2024-03-29T18:35:28;12.90;99.90
19610;DHT22;9952;47.122;-1.638;2024-03-29T18:40:10;12.90;99.90
19610;DHT22;9952;47.122;-1.638;2024-03-29T18:44:52;12.80;99.90
19610;DHT22;9952;47.122;-1.638;2024-03-29T18:49:33;12.70;99.90
19610;DHT22;9952;47.122;-1.638;2024-03-29T18:54:13;12.70;99.90
19610;DHT22;9952;47.122;-1.638;2024-03-29T18:58:54;12.60;99.90
19610;DHT22;9952;47.122;-1.638;2024-03-29T19:03:35;12.50;99.90
19610;DHT22;9952;47.122;-1.638;2024-03-29T19:08:15;12.40;99.90
19610;DHT22;9952;47.122;-1.638;2024-03-29T19:12:56;12.30;99.90
19610;DHT22;9952;47.122;-1.638;2024-03-29T19:17:37;12.20;99.90
19610;DHT22;9952;47.122;-1.638;2024-03-29T19:22:18;12.20;99.90
19610;DHT22;9952;47.122;-1.638;2024-03-29T19:26:58;12.20;99.90
19610;DHT22;9952;47.122;-1.638;2024-03-29T19:31:39;12.10;99.90
19610;DHT22;9952;47.122;-1.638;2024-03-29T19:36:21;12.00;99.90
19610;DHT22;9952;47.122;-1.638;2024-03-29T19:41:02;12.00;99.90
19610;DHT22;9952;47.122;-1.638;2024-03-29T19:45:43;12.00;99.90
19610;DHT22;9952;47.122;-1.638;2024-03-29T19:50:24;12.00;99.90
19610;DHT22;9952;47.122;-1.638;2024-03-29T19:55:05;11.90;99.90
19610;DHT22;9952;47.122;-1.638;2024-03-29T19:59:46;11.80;99.90
19610;DHT22;9952;47.122;-1.638;2024-03-29T20:04:26;11.70;99.90
19610;DHT22;9952;47.122;-1.638;2024-03-29T20:09:10;11.60;99.90
19610;DHT22;9952;47.122;-1.638;2024-03-29T20:13:50;11.50;99.90
19610;DHT22;9952;47.122;-1.638;2024-03-29T20:18:31;11.40;99.90
19610;DHT22;9952;47.122;-1.638;2024-03-29T20:23:12;11.40;99.90
19610;DHT22;9952;47.122;-1.638;2024-03-29T20:27:53;11.30;99.90
19610;DHT22;9952;47.122;-1.638;2024-03-29T20:32:33;11.30;99.90
19610;DHT22;9952;47.122;-1.638;2024-03-29T20:37:14;11.30;99.90
19610;DHT22;9952;47.122;-1.638;2024-03-29T20:41:56;11.30;99.90
19610;DHT22;9952;47.122;-1.638;2024-03-29T20:46:36;11.40;99.90
19610;DHT22;9952;47.122;-1.638;2024-03-29T20:51:17;11.30;99.90
19610;DHT22;9952;47.122;-1.638;2024-03-29T20:56:04;11.30;99.90
19610;DHT22;9952;47.122;-1.638;2024-03-29T21:00:45;11.20;99.90
19610;DHT22;9952;47.122;-1.638;2024-03-29T21:05:25;11.00;99.90
19610;DHT22;9952;47.122;-1.638;2024-03-29T21:10:16;10.90;99.90
19610;DHT22;9952;47.122;-1.638;2024-03-29T21:14:57;10.80;99.90
19610;DHT22;9952;47.122;-1.638;2024-03-29T21:19:38;10.80;99.90
19610;DHT22;9952;47.122;-1.638;2024-03-29T21:24:19;10.70;99.90
19610;DHT22;9952;47.122;-1.638;2024-03-29T21:28:59;10.80;99.90
19610;DHT22;9952;47.122;-1.638;2024-03-29T21:33:40;10.80;99.90
19610;DHT22;9952;47.122;-1.638;2024-03-29T21:38:21;10.80;99.90
19610;DHT22;9952;47.122;-1.638;2024-03-29T21:43:02;10.80;99.90
19610;DHT22;9952;47.122;-1.638;2024-03-29T21:47:43;10.80;99.90
19610;DHT22;9952;47.122;-1.638;2024-03-29T21:52:23;10.70;99.90
19610;DHT22;9952;47.122;-1.638;2024-03-29T21:57:04;10.60;99.90
19610;DHT22;9952;47.122;-1.638;2024-03-29T22:01:45;10.50;99.90
19610;DHT22;9952;47.122;-1.638;2024-03-29T22:06:26;10.40;99.90
19610;DHT22;9952;47.122;-1.638;2024-03-29T22:11:10;10.40;99.90
19610;DHT22;9952;47.122;-1.638;2024-03-29T22:15:51;10.40;99.90
19610;DHT22;9952;47.122;-1.638;2024-03-29T22:20:32;10.30;99.90
19610;DHT22;9952;47.122;-1.638;2024-03-29T22:25:13;10.20;99.90
19610;DHT22;9952;47.122;-1.638;2024-03-29T22:29:56;10.20;99.90
19610;DHT22;9952;47.122;-1.638;2024-03-29T22:34:37;10.20;99.90
19610;DHT22;9952;47.122;-1.638;2024-03-29T22:39:18;10.00;99.90
19610;DHT22;9952;47.122;-1.638;2024-03-29T22:43:59;10.00;99.90
19610;DHT22;9952;47.122;-1.638;2024-03-29T22:48:40;10.00;99.90
19610;DHT22;9952;47.122;-1.638;2024-03-29T22:53:20;10.00;99.90
19610;DHT22;9952;47.122;-1.638;2024-03-29T22:58:04;10.00;99.90
19610;DHT22;9952;47.122;-1.638;2024-03-29T23:02:45;9.90;99.90
19610;DHT22;9952;47.122;-1.638;2024-03-29T23:07:25;10.00;99.90
19610;DHT22;9952;47.122;-1.638;2024-03-29T23:12:07;10.00;99.90
19610;DHT22;9952;47.122;-1.638;2024-03-29T23:16:48;9.90;99.90
19610;DHT22;9952;47.122;-1.638;2024-03-29T23:21:29;9.90;99.90
19610;DHT22;9952;47.122;-1.638;2024-03-29T23:26:10;9.90;99.90
19610;DHT22;9952;47.122;-1.638;2024-03-29T23:30:50;9.90;99.90
19610;DHT22;9952;47.122;-1.638;2024-03-29T23:35:31;9.90;99.90
19610;DHT22;9952;47.122;-1.638;2024-03-29T23:40:12;10.00;99.90
19610;DHT22;9952;47.122;-1.638;2024-03-29T23:44:52;10.00;99.90
19610;DHT22;9952;47.122;-1.638;2024-03-29T23:49:33;10.00;99.90
19610;DHT22;9952;47.122;-1.638;2024-03-29T23:54:14;10.00;99.90
19610;DHT22;9952;47.122;-1.638;2024-03-29T23:58:57;10.00;99.90
